Airport View

Enter AWOS ICAO identifier for current METAR.

ex. KFNL

KHSA 031650Z 02004KT 7SM SCT080 30/22 A2997

3 Jul 2020 17:17

Frequency: 118.375

Phone: 228-466-9320

Other Area AWOS: KMJD - KASD - KGPT - KBIX

TAF KASD 031120Z 0312/0412 00000KT P6SM VCSH SCT040 OVC100 FM031500 VRB03KT P6SM VCTS SCT030CB BKN100 FM031800 VRB04KT P6SM SHRA VCTS SCT020CB BKN090 FM040000 VRB03KT P6SM VCTS SCT025CB BKN100 FM040600 00000KT P6SM SCT050 BKN100